GMMI Airport Information

Runway Information
Runway 16 Length 6890 ft width 148 ft
Elevation 351 ft Threshold 0 ft Heading 159
Runway 34 Length 6890 ft Width 148 ft
Elevation 421 ft Threshold 0 ft Heading 339
Airport Frequencies
Type TWR Name TWR Frequency 121.2 MHZ
Airport Navaids
Type VOR-DME Name Essaouira Frequency 112700 KHZ
Airport Weather Information & NOTAM
ADDS - METARS form results

(0319 UTC 23 January 2022)
Data provider http://aviationweather.gov/metar/data/
 
Forecast for: GMMI (ESSAOUIRA , MA)
Text: TAF GMMI 222300Z 2300/2406 VRB02KT 8000 NSC
Forecast period: 0000 UTC 23 January 2022 to 0600 UTC 24 January 2022
Forecast type: FROM: standard forecast or significant change
Winds: variable direction winds at 2 MPH (2 knots; 1.0 m/s)
Visibility: 5 miles (8 km)
Ceiling: unknown
Clouds: missing
Weather: no significant weather forecast for this period